Time;durP1;ratioP1;P1;durP2;ratioP2;P2;SDS_P1;SDS_P2;PMS_P1;PMS_P2;Temp;Humidity;BMP_temperature;BMP_pressure;BME280_temperature;BME280_humidity;BME280_pressure;Samples;Min_cycle;Max_cycle;Signal;HPM_P1;HPM_P2
2021/08/16 00:01:11;;;;;;;8.23;7.25;;;23.70;76.90;;;;;;5022446;28;20265;-86
2021/08/16 00:03:37;;;;;;;9.57;7.55;;;23.60;77.20;;;;;;5029464;28;20568;-86
2021/08/16 00:06:02;;;;;;;8.18;7.47;;;23.60;77.00;;;;;;5018577;28;20510;-86
2021/08/16 00:08:28;;;;;;;8.88;8.02;;;23.60;77.20;;;;;;5020498;28;20181;-86
2021/08/16 00:10:54;;;;;;;9.05;8.20;;;23.70;76.90;;;;;;5017723;28;20295;-86
2021/08/16 00:13:24;;;;;;;8.02;7.22;;;23.50;77.50;;;;;;5016863;28;20208;-84
2021/08/16 00:15:50;;;;;;;8.68;7.88;;;23.60;77.20;;;;;;5018891;28;20185;-85
2021/08/16 00:18:16;;;;;;;9.77;8.88;;;23.50;77.90;;;;;;5018993;28;20224;-86
2021/08/16 00:20:42;;;;;;;10.63;8.65;;;23.10;79.60;;;;;;5018377;28;20213;-85
2021/08/16 00:23:07;;;;;;;8.98;8.10;;;23.00;80.70;;;;;;5018356;28;20257;-85
2021/08/16 00:25:33;;;;;;;10.25;9.05;;;23.00;80.70;;;;;;5021508;28;20239;-86
2021/08/16 00:27:59;;;;;;;9.35;8.38;;;22.90;81.10;;;;;;5021595;28;20189;-87
2021/08/16 00:30:24;;;;;;;12.38;9.18;;;22.90;81.70;;;;;;5037338;28;20209;-86
2021/08/16 00:32:50;;;;;;;11.57;9.23;;;22.80;82.30;;;;;;5022205;28;20190;-86
2021/08/16 00:35:16;;;;;;;10.60;9.40;;;22.70;83.90;;;;;;5037223;28;20716;-85
2021/08/16 00:37:42;;;;;;;10.48;9.48;;;22.50;85.10;;;;;;5006886;28;20195;-85
2021/08/16 00:40:08;;;;;;;9.95;9.02;;;22.50;85.10;;;;;;5025122;28;20256;-85
2021/08/16 00:42:35;;;;;;;9.75;8.93;;;22.40;85.90;;;;;;5023228;28;20495;-87
2021/08/16 00:45:03;;;;;;;13.13;10.02;;;22.40;86.00;;;;;;5022172;28;20193;-86
2021/08/16 00:47:29;;;;;;;12.02;10.93;;;22.40;86.50;;;;;;5022549;28;20184;-86
2021/08/16 00:49:55;;;;;;;11.07;9.98;;;22.20;88.70;;;;;;5023643;28;20194;-86
2021/08/16 00:52:21;;;;;;;11.70;10.70;;;22.00;89.30;;;;;;5035285;28;20351;-86
2021/08/16 00:54:47;;;;;;;15.93;10.88;;;22.00;90.30;;;;;;5022222;28;20196;-86
2021/08/16 00:57:14;;;;;;;10.98;9.98;;;22.00;90.20;;;;;;5022485;28;20182;-86
2021/08/16 00:59:40;;;;;;;11.38;10.32;;;22.00;90.30;;;;;;5022026;28;20185;-88
2021/08/16 01:02:05;;;;;;;11.23;10.25;;;22.10;90.60;;;;;;5021585;28;20240;-86
2021/08/16 01:04:31;;;;;;;11.90;10.80;;;22.00;91.20;;;;;;5022182;28;20186;-86
2021/08/16 01:06:57;;;;;;;12.63;11.43;;;21.90;91.50;;;;;;5021579;28;20227;-86
2021/08/16 01:09:23;;;;;;;13.80;12.52;;;21.80;92.20;;;;;;5020827;28;20231;-86
2021/08/16 01:11:50;;;;;;;13.20;11.93;;;21.80;92.80;;;;;;5036853;28;20235;-85
2021/08/16 01:14:17;;;;;;;12.68;11.52;;;21.80;92.30;;;;;;5022771;28;20226;-89
2021/08/16 01:16:42;;;;;;;11.75;10.57;;;21.80;92.50;;;;;;5021130;28;20195;-86
2021/08/16 01:19:09;;;;;;;13.85;10.95;;;21.90;92.60;;;;;;5021867;28;20200;-86
2021/08/16 01:21:35;;;;;;;12.73;11.45;;;21.90;92.10;;;;;;5019373;28;20600;-85
2021/08/16 01:24:00;;;;;;;11.95;10.75;;;21.90;92.80;;;;;;5021726;28;20190;-86
2021/08/16 01:26:30;;;;;;;11.98;10.93;;;21.90;92.20;;;;;;5021037;28;20190;-87
2021/08/16 01:28:56;;;;;;;13.73;11.00;;;21.90;92.50;;;;;;5036602;28;20505;-86
2021/08/16 01:31:22;;;;;;;13.00;11.10;;;21.90;92.30;;;;;;5022380;28;20305;-87
2021/08/16 01:33:47;;;;;;;12.02;11.02;;;21.90;92.80;;;;;;5002400;28;20201;-88
2021/08/16 01:36:13;;;;;;;12.70;11.52;;;21.80;93.10;;;;;;5035846;28;20284;-86
2021/08/16 01:38:42;;;;;;;15.93;11.18;;;21.90;93.20;;;;;;5036605;28;20227;-86
2021/08/16 01:41:08;;;;;;;12.48;11.27;;;21.80;93.50;;;;;;5021096;28;20310;-86
2021/08/16 01:43:34;;;;;;;12.50;11.18;;;21.90;93.50;;;;;;5019639;28;20187;-84
2021/08/16 01:46:00;;;;;;;12.40;11.40;;;21.90;93.40;;;;;;5022733;28;20640;-84
2021/08/16 01:48:27;;;;;;;14.55;12.20;;;21.90;93.50;;;;;;5021808;28;20191;-85
2021/08/16 01:50:53;;;;;;;13.40;12.02;;;21.90;93.20;;;;;;5019861;28;20258;-87
2021/08/16 01:53:18;;;;;;;13.73;11.60;;;21.90;93.50;;;;;;5021379;28;20189;-86
2021/08/16 01:55:45;;;;;;;13.70;11.43;;;22.00;93.40;;;;;;5014530;28;20190;-86
2021/08/16 01:58:10;;;;;;;12.48;11.38;;;22.00;93.30;;;;;;5020248;28;20205;-87
2021/08/16 02:00:37;;;;;;;12.90;11.68;;;22.00;93.10;;;;;;5014525;28;20201;-86
2021/08/16 02:03:03;;;;;;;13.82;12.55;;;22.10;93.20;;;;;;5019186;28;20197;-86
2021/08/16 02:05:29;;;;;;;12.43;11.20;;;22.10;93.00;;;;;;5019886;28;20205;-89
2021/08/16 02:07:58;;;;;;;12.23;11.07;;;22.10;93.10;;;;;;5020731;28;20200;-86
2021/08/16 02:10:23;;;;;;;12.73;11.63;;;22.10;93.30;;;;;;5020882;28;20261;-86
2021/08/16 02:12:49;;;;;;;12.25;11.25;;;22.00;93.60;;;;;;5020329;28;20188;-88
2021/08/16 02:15:15;;;;;;;11.38;10.27;;;22.10;93.30;;;;;;5019264;28;20253;-87
2021/08/16 02:17:41;;;;;;;12.52;11.13;;;22.20;92.90;;;;;;5020916;28;20189;-86
2021/08/16 02:20:08;;;;;;;12.00;10.90;;;22.20;92.60;;;;;;5019832;28;20201;-86
2021/08/16 02:22:34;;;;;;;12.60;11.40;;;22.10;93.10;;;;;;5020156;28;20216;-86
2021/08/16 02:24:59;;;;;;;12.45;11.32;;;22.10;93.30;;;;;;5003748;28;20277;-86
2021/08/16 02:27:25;;;;;;;13.02;11.65;;;22.00;93.30;;;;;;5035929;28;20219;-86
2021/08/16 02:29:51;;;;;;;13.30;11.27;;;22.10;93.20;;;;;;5017086;28;20735;-88
2021/08/16 02:32:16;;;;;;;13.07;11.90;;;22.00;93.30;;;;;;5020367;28;20215;-86
2021/08/16 02:34:42;;;;;;;12.70;11.20;;;22.00;93.40;;;;;;5019579;28;20187;-86
2021/08/16 02:37:08;;;;;;;12.13;11.02;;;22.00;93.20;;;;;;5018803;28;20195;-88
2021/08/16 02:39:34;;;;;;;12.40;10.88;;;22.00;93.30;;;;;;5020960;28;20542;-86
2021/08/16 02:41:59;;;;;;;15.15;10.50;;;21.90;93.30;;;;;;5020973;28;20231;-86
2021/08/16 02:44:25;;;;;;;11.80;10.68;;;21.90;93.10;;;;;;4999023;28;20242;-86
2021/08/16 02:46:51;;;;;;;11.70;10.63;;;21.90;93.20;;;;;;5020060;28;20192;-87
2021/08/16 02:49:16;;;;;;;11.80;10.52;;;21.80;93.20;;;;;;5034551;28;20198;-87
2021/08/16 02:51:42;;;;;;;11.30;10.13;;;21.80;93.20;;;;;;5017711;28;20222;-86
2021/08/16 02:54:08;;;;;;;11.88;10.85;;;21.80;93.20;;;;;;5017927;28;20210;-88
2021/08/16 02:56:34;;;;;;;11.88;10.68;;;21.80;93.30;;;;;;5019353;28;20331;-86
2021/08/16 02:58:59;;;;;;;13.88;10.35;;;21.80;92.80;;;;;;5021129;28;20235;-86
2021/08/16 03:01:25;;;;;;;11.60;10.50;;;21.70;92.80;;;;;;5019153;28;20224;-88
2021/08/16 03:03:51;;;;;;;14.25;10.73;;;21.70;92.70;;;;;;5020172;28;20248;-86
2021/08/16 03:06:17;;;;;;;11.73;9.77;;;21.60;92.80;;;;;;5022632;28;20185;-86
2021/08/16 03:08:42;;;;;;;10.45;9.55;;;21.60;91.90;;;;;;5019182;28;20220;-89
2021/08/16 03:11:08;;;;;;;10.00;9.10;;;21.60;92.10;;;;;;5034272;28;20252;-87
2021/08/16 03:13:34;;;;;;;10.23;9.23;;;21.70;91.30;;;;;;5019455;28;20725;-85
2021/08/16 03:16:01;;;;;;;10.90;9.93;;;21.70;91.00;;;;;;5019469;28;20200;-85
2021/08/16 03:18:27;;;;;;;10.95;9.18;;;21.70;90.50;;;;;;5020335;28;20838;-87
2021/08/16 03:20:53;;;;;;;10.75;9.55;;;21.70;90.30;;;;;;5020089;28;20207;-85
2021/08/16 03:23:19;;;;;;;10.65;8.57;;;21.70;90.40;;;;;;5018493;28;20190;-87
2021/08/16 03:25:45;;;;;;;10.40;9.35;;;21.70;90.10;;;;;;5019192;28;20312;-86
2021/08/16 03:28:11;;;;;;;10.98;9.95;;;21.80;89.70;;;;;;5016943;28;20192;-86
2021/08/16 03:30:37;;;;;;;11.80;9.50;;;21.70;90.10;;;;;;5018811;28;20206;-86
2021/08/16 03:33:03;;;;;;;10.35;9.43;;;21.70;89.90;;;;;;5018147;28;20201;-84
2021/08/16 03:35:28;;;;;;;11.57;10.02;;;21.70;90.00;;;;;;5019906;28;20179;-87
2021/08/16 03:37:54;;;;;;;10.23;9.20;;;21.80;90.00;;;;;;5019002;28;20193;-86
2021/08/16 03:40:20;;;;;;;9.85;8.82;;;21.80;89.30;;;;;;5020135;28;20531;-86
2021/08/16 03:42:45;;;;;;;9.70;8.70;;;21.90;89.50;;;;;;5029114;28;20263;-84
2021/08/16 03:45:18;;;;;;;10.23;9.13;;;21.90;89.30;;;;;;5034086;28;20189;-84
2021/08/16 03:47:44;;;;;;;12.20;9.07;;;21.90;88.70;;;;;;5028141;28;20196;-86
2021/08/16 03:50:11;;;;;;;11.07;8.98;;;21.90;88.60;;;;;;5022464;28;20693;-86
2021/08/16 03:52:36;;;;;;;9.85;8.95;;;21.80;88.50;;;;;;5035954;28;20193;-86
2021/08/16 03:55:03;;;;;;;11.13;8.48;;;21.80;87.90;;;;;;5020237;28;20202;-86
2021/08/16 03:57:29;;;;;;;9.35;8.50;;;21.80;88.00;;;;;;5019631;28;20205;-87
2021/08/16 03:59:54;;;;;;;9.05;8.15;;;21.80;87.50;;;;;;5017687;28;20193;-87
2021/08/16 04:02:21;;;;;;;9.88;8.27;;;21.80;87.50;;;;;;5033388;28;20227;-87
2021/08/16 04:04:47;;;;;;;10.00;8.07;;;21.70;88.00;;;;;;5033843;28;20814;-86
2021/08/16 04:07:13;;;;;;;10.15;8.90;;;21.60;88.10;;;;;;5017954;28;20215;-87
2021/08/16 04:09:39;;;;;;;9.93;8.98;;;21.60;88.30;;;;;;5019809;28;20192;-87
2021/08/16 04:12:05;;;;;;;10.10;8.57;;;21.60;88.50;;;;;;5019313;28;20247;-87
2021/08/16 04:14:31;;;;;;;9.68;8.80;;;21.50;88.60;;;;;;5018985;28;20259;-86
2021/08/16 04:16:57;;;;;;;11.55;8.95;;;21.40;88.60;;;;;;5021646;28;20187;-87
2021/08/16 04:19:22;;;;;;;9.60;8.65;;;21.30;88.70;;;;;;5021296;28;20597;-87
2021/08/16 04:21:48;;;;;;;10.13;8.65;;;21.20;89.70;;;;;;5022096;28;20733;-86
2021/08/16 04:24:14;;;;;;;12.35;8.65;;;21.20;89.20;;;;;;5022473;28;20197;-86
2021/08/16 04:26:40;;;;;;;12.68;9.00;;;21.30;88.40;;;;;;5021374;28;20201;-86
2021/08/16 04:29:05;;;;;;;9.27;8.38;;;21.30;88.50;;;;;;5020543;28;20274;-86
2021/08/16 04:31:32;;;;;;;14.15;8.85;;;21.20;88.20;;;;;;5020973;28;20207;-88
2021/08/16 04:33:58;;;;;;;9.18;8.25;;;21.10;88.40;;;;;;5021541;28;20204;-87
2021/08/16 04:36:23;;;;;;;10.80;8.95;;;21.20;88.10;;;;;;5021241;28;20211;-86
2021/08/16 04:38:49;;;;;;;9.65;8.32;;;21.20;87.10;;;;;;5022082;28;20274;-86
2021/08/16 04:41:14;;;;;;;11.98;8.07;;;21.20;87.30;;;;;;5021476;28;20241;-86
2021/08/16 04:43:40;;;;;;;8.93;8.10;;;21.20;87.10;;;;;;5034762;28;20250;-86
2021/08/16 04:46:06;;;;;;;9.00;8.10;;;21.20;87.10;;;;;;5024416;28;20198;-85
2021/08/16 04:48:32;;;;;;;13.38;8.35;;;21.10;87.00;;;;;;5021796;28;20251;-85
2021/08/16 04:50:58;;;;;;;8.82;7.95;;;21.00;87.20;;;;;;5022837;28;20205;-86
2021/08/16 04:53:23;;;;;;;9.20;8.20;;;21.00;86.50;;;;;;5020612;28;20197;-85
2021/08/16 04:55:49;;;;;;;8.90;7.60;;;20.90;87.10;;;;;;5019831;28;20249;-85
2021/08/16 04:58:15;;;;;;;9.88;7.80;;;20.90;87.10;;;;;;5021596;28;20208;-85
2021/08/16 05:00:41;;;;;;;8.27;7.47;;;20.90;86.80;;;;;;5021882;28;20643;-85
2021/08/16 05:03:06;;;;;;;8.45;7.43;;;20.90;86.80;;;;;;5020548;28;20197;-85
2021/08/16 05:05:32;;;;;;;11.07;8.52;;;21.00;86.70;;;;;;5019993;28;20208;-85
2021/08/16 05:07:59;;;;;;;8.75;7.95;;;21.00;86.80;;;;;;5018769;28;20185;-85
2021/08/16 05:10:30;;;;;;;8.38;7.07;;;21.00;86.60;;;;;;5023204;28;20781;-86
2021/08/16 05:12:58;;;;;;;7.60;6.90;;;20.90;86.90;;;;;;5024438;28;20201;-85
2021/08/16 05:15:24;;;;;;;8.10;7.30;;;21.00;86.40;;;;;;5021769;28;20241;-85
2021/08/16 05:17:50;;;;;;;7.90;7.05;;;20.90;86.00;;;;;;5023546;28;20189;-85
2021/08/16 05:20:17;;;;;;;6.80;6.20;;;20.90;84.50;;;;;;5023286;28;20217;-85
2021/08/16 05:22:45;;;;;;;8.35;6.75;;;21.10;83.70;;;;;;5037952;28;20206;-85
2021/08/16 05:25:12;;;;;;;7.70;6.78;;;21.20;83.50;;;;;;5022611;28;20179;-85
2021/08/16 05:27:40;;;;;;;7.70;6.90;;;21.10;82.90;;;;;;5022860;28;20227;-85
2021/08/16 05:30:06;;;;;;;9.63;6.78;;;21.20;82.60;;;;;;5023862;28;20266;-85
2021/08/16 05:32:32;;;;;;;7.00;6.28;;;21.20;82.40;;;;;;5023809;28;20213;-86
2021/08/16 05:34:58;;;;;;;10.30;6.68;;;21.10;81.50;;;;;;5015794;28;20223;-85
2021/08/16 05:37:24;;;;;;;6.85;5.85;;;21.10;82.40;;;;;;5015887;28;20291;-85
2021/08/16 05:39:49;;;;;;;6.72;5.90;;;21.10;82.00;;;;;;5024123;28;20191;-86
2021/08/16 05:42:17;;;;;;;9.45;6.78;;;21.20;81.40;;;;;;5023571;28;20221;-85
2021/08/16 05:44:43;;;;;;;7.15;5.70;;;21.00;81.80;;;;;;5025087;28;20187;-85
2021/08/16 05:47:10;;;;;;;8.82;6.80;;;20.90;81.50;;;;;;5023508;28;20242;-85
2021/08/16 05:49:36;;;;;;;7.57;5.28;;;20.90;82.00;;;;;;5021880;28;20189;-87
2021/08/16 05:52:01;;;;;;;6.47;5.53;;;21.10;81.00;;;;;;5020130;28;20677;-86
2021/08/16 05:54:27;;;;;;;7.47;5.63;;;21.00;80.50;;;;;;5020061;28;20208;-85
2021/08/16 05:56:53;;;;;;;8.48;5.97;;;21.10;80.20;;;;;;5020585;28;20193;-86
2021/08/16 05:59:19;;;;;;;7.18;6.30;;;21.00;79.70;;;;;;5020757;28;20258;-86
2021/08/16 06:01:45;;;;;;;8.43;5.78;;;21.00;80.30;;;;;;5025240;28;20214;-86
2021/08/16 06:04:10;;;;;;;7.75;4.75;;;21.00;78.60;;;;;;5046628;28;20197;-85
2021/08/16 06:06:36;;;;;;;9.98;5.35;;;21.00;78.40;;;;;;5028741;28;20204;-86
2021/08/16 06:09:04;;;;;;;6.95;5.05;;;20.90;78.00;;;;;;5020025;28;20377;-86
2021/08/16 06:11:30;;;;;;;5.07;4.57;;;20.90;77.80;;;;;;5021012;28;20210;-86
2021/08/16 06:13:56;;;;;;;7.78;4.50;;;20.80;76.50;;;;;;5021275;28;20260;-86
2021/08/16 06:16:22;;;;;;;6.78;4.47;;;20.80;76.10;;;;;;5020013;28;20190;-86
2021/08/16 06:18:48;;;;;;;7.07;4.60;;;20.80;75.50;;;;;;5021348;28;20201;-86
2021/08/16 06:21:14;;;;;;;9.32;4.93;;;20.70;75.80;;;;;;5019522;28;20232;-86
2021/08/16 06:23:39;;;;;;;7.18;4.90;;;20.70;76.00;;;;;;5018634;28;20618;-86
2021/08/16 06:26:07;;;;;;;4.82;4.15;;;20.80;75.00;;;;;;5023706;28;20189;-85
2021/08/16 06:28:33;;;;;;;6.20;5.60;;;20.80;74.40;;;;;;5020980;28;20189;-86
2021/08/16 06:30:59;;;;;;;6.65;4.55;;;21.00;73.30;;;;;;5021092;28;20772;-87
2021/08/16 06:33:24;;;;;;;5.10;3.88;;;21.00;72.50;;;;;;5020743;28;20207;-87
2021/08/16 06:35:51;;;;;;;7.20;4.82;;;21.00;72.20;;;;;;5016335;28;20210;-87
2021/08/16 06:38:34;;;;;;;6.57;4.35;;;20.90;73.60;;;;;;5036315;28;20194;-87
2021/08/16 06:41:01;;;;;;;7.45;4.05;;;20.90;72.70;;;;;;5020069;28;20234;-87
2021/08/16 06:43:28;;;;;;;5.28;4.13;;;20.90;72.80;;;;;;5022040;28;20274;-88
2021/08/16 06:45:54;;;;;;;6.68;4.95;;;20.90;73.40;;;;;;5021208;28;20174;-86
2021/08/16 06:48:20;;;;;;;6.30;5.18;;;21.10;73.80;;;;;;5020899;28;20241;-87
2021/08/16 06:50:46;;;;;;;5.43;4.40;;;21.20;73.60;;;;;;5020380;28;20217;-87
2021/08/16 06:53:13;;;;;;;5.40;4.70;;;21.40;73.80;;;;;;5018200;28;20871;-85
2021/08/16 06:55:42;;;;;;;6.85;4.80;;;21.50;74.00;;;;;;5016075;28;20195;-87
2021/08/16 06:58:08;;;;;;;5.20;4.68;;;21.50;74.40;;;;;;4999232;28;20208;-86
2021/08/16 07:00:38;;;;;;;6.95;4.55;;;21.30;75.00;;;;;;5017723;28;20216;-88
2021/08/16 07:03:04;;;;;;;8.07;5.30;;;21.30;76.80;;;;;;5017683;28;20178;-87
2021/08/16 07:05:30;;;;;;;8.98;5.22;;;21.30;77.40;;;;;;5017218;28;20227;-87
2021/08/16 07:07:55;;;;;;;7.40;5.40;;;21.30;76.80;;;;;;5017975;28;20202;-88
2021/08/16 07:10:21;;;;;;;5.95;5.18;;;21.30;77.70;;;;;;5016830;28;20182;-87
2021/08/16 07:12:47;;;;;;;6.35;5.35;;;21.40;77.10;;;;;;5016164;28;20203;-88
2021/08/16 07:15:14;;;;;;;7.80;5.15;;;21.50;76.00;;;;;;5015471;28;20202;-87
2021/08/16 07:17:40;;;;;;;5.68;5.10;;;21.60;76.50;;;;;;5016967;28;20257;-87
2021/08/16 07:20:07;;;;;;;5.32;4.82;;;21.40;76.00;;;;;;5018932;28;20222;-85
2021/08/16 07:22:34;;;;;;;5.60;5.10;;;21.50;76.20;;;;;;5017915;28;20217;-86
2021/08/16 07:24:59;;;;;;;5.20;4.70;;;21.50;77.40;;;;;;5000074;28;20234;-86
2021/08/16 07:27:25;;;;;;;6.47;5.22;;;21.50;77.40;;;;;;5034219;28;20253;-85
2021/08/16 07:29:51;;;;;;;5.90;4.93;;;21.70;75.70;;;;;;5016918;28;20196;-87
2021/08/16 07:32:16;;;;;;;5.90;5.10;;;21.70;75.30;;;;;;5020702;28;20205;-84
2021/08/16 07:34:42;;;;;;;6.57;4.55;;;21.60;76.40;;;;;;5025862;28;20198;-85
2021/08/16 07:37:09;;;;;;;8.60;4.60;;;21.60;75.30;;;;;;5027810;28;20703;-85
2021/08/16 07:39:35;;;;;;;5.28;4.78;;;21.50;75.10;;;;;;5021081;28;20202;-86
2021/08/16 07:42:01;;;;;;;7.38;4.35;;;21.50;75.90;;;;;;5020012;28;20224;-85
2021/08/16 07:44:26;;;;;;;10.70;5.38;;;21.50;75.10;;;;;;5020630;28;20222;-85
2021/08/16 07:46:52;;;;;;;6.53;4.97;;;21.50;75.40;;;;;;5020331;28;20186;-86
2021/08/16 07:49:18;;;;;;;6.32;4.78;;;21.50;76.80;;;;;;5019722;28;20188;-86
2021/08/16 07:51:44;;;;;;;6.80;4.63;;;21.60;75.10;;;;;;5020446;28;20569;-86
2021/08/16 07:54:09;;;;;;;10.02;4.60;;;21.60;74.20;;;;;;5020745;28;20192;-87
2021/08/16 07:56:35;;;;;;;9.05;4.60;;;21.70;73.60;;;;;;5019116;28;20254;-85
2021/08/16 07:59:01;;;;;;;6.93;4.93;;;21.80;74.10;;;;;;5020084;28;20209;-86
2021/08/16 08:01:26;;;;;;;6.00;4.72;;;21.90;70.60;;;;;;5020438;28;20215;-85
2021/08/16 08:03:52;;;;;;;5.88;4.65;;;22.10;69.30;;;;;;5020111;28;20186;-87
2021/08/16 08:06:19;;;;;;;5.40;4.40;;;22.10;68.90;;;;;;5019136;28;20244;-86
2021/08/16 08:08:44;;;;;;;6.80;4.20;;;22.20;68.90;;;;;;5016662;28;20575;-89
2021/08/16 08:11:10;;;;;;;9.18;4.13;;;22.10;68.10;;;;;;5020101;28;20224;-87
2021/08/16 08:13:38;;;;;;;7.38;4.55;;;21.90;68.10;;;;;;5018111;28;20234;-86
2021/08/16 08:16:04;;;;;;;5.22;4.05;;;21.90;67.70;;;;;;5019082;28;20187;-86
2021/08/16 08:18:30;;;;;;;4.68;3.70;;;21.80;69.90;;;;;;5019993;28;20193;-86
2021/08/16 08:20:55;;;;;;;8.85;4.50;;;21.80;67.00;;;;;;5019976;28;20268;-86
2021/08/16 08:23:21;;;;;;;4.60;4.15;;;21.80;68.70;;;;;;5018603;28;20180;-88
2021/08/16 08:25:47;;;;;;;6.28;3.75;;;22.00;67.40;;;;;;5018225;28;20179;-87
2021/08/16 08:28:15;;;;;;;8.88;4.25;;;22.00;67.20;;;;;;5017757;28;20261;-87
2021/08/16 08:30:42;;;;;;;10.30;4.07;;;22.00;66.40;;;;;;5018775;28;20232;-88
2021/08/16 08:33:07;;;;;;;6.63;4.45;;;21.90;67.70;;;;;;5001123;28;20195;-86
2021/08/16 08:35:33;;;;;;;7.72;4.10;;;21.70;67.70;;;;;;5018084;28;20229;-84
2021/08/16 08:37:59;;;;;;;4.95;4.03;;;21.80;68.50;;;;;;5020364;28;20226;-87
2021/08/16 08:40:25;;;;;;;9.82;4.40;;;21.90;67.00;;;;;;5020485;28;20206;-85
2021/08/16 08:42:53;;;;;;;6.72;4.28;;;21.80;66.80;;;;;;5021447;28;20237;-86
2021/08/16 08:45:21;;;;;;;4.10;3.67;;;21.90;65.90;;;;;;5019988;28;20183;-86
2021/08/16 08:47:47;;;;;;;6.18;3.85;;;21.90;65.90;;;;;;5022421;28;20189;-87
2021/08/16 08:50:15;;;;;;;9.77;4.10;;;22.20;64.50;;;;;;5024210;28;20698;-86
2021/08/16 08:52:42;;;;;;;6.43;3.78;;;22.40;65.40;;;;;;5039043;28;20193;-87
2021/08/16 08:55:09;;;;;;;7.80;4.28;;;22.60;64.30;;;;;;5019802;28;20243;-86
2021/08/16 08:57:37;;;;;;;6.35;3.78;;;22.80;63.40;;;;;;5023132;28;20192;-86
2021/08/16 09:00:05;;;;;;;4.32;3.75;;;22.80;62.30;;;;;;5022618;28;20183;-86
2021/08/16 09:02:30;;;;;;;6.63;4.13;;;22.70;61.70;;;;;;5022585;28;20278;-85
2021/08/16 09:04:57;;;;;;;7.38;3.97;;;22.80;61.20;;;;;;5023247;28;20223;-88
2021/08/16 09:07:35;;;;;;;6.97;3.83;;;23.00;62.80;;;;;;5022938;28;20707;-86
2021/08/16 09:10:10;;;;;;;5.18;3.97;;;22.80;59.00;;;;;;5021778;28;20263;-86
2021/08/16 09:12:37;;;;;;;9.82;4.40;;;22.90;61.10;;;;;;5020434;28;20198;-87
2021/08/16 09:15:13;;;;;;;7.22;3.95;;;22.90;61.00;;;;;;5022031;28;20320;-85
2021/08/16 09:17:39;;;;;;;10.18;3.92;;;23.10;59.70;;;;;;5021830;28;20578;-87
2021/08/16 09:20:14;;;;;;;5.80;3.83;;;23.20;58.40;;;;;;5021657;28;20190;-86
2021/08/16 09:22:40;;;;;;;5.78;3.95;;;23.50;58.30;;;;;;5014848;28;20572;-85
2021/08/16 09:25:10;;;;;;;7.32;4.10;;;23.60;58.60;;;;;;5021673;28;20181;-86
2021/08/16 09:27:47;;;;;;;6.65;4.03;;;24.10;56.40;;;;;;5021604;28;20177;-86
2021/08/16 09:30:14;;;;;;;6.28;3.85;;;23.90;55.00;;;;;;5009725;28;20185;-89
2021/08/16 09:32:43;;;;;;;6.20;3.90;;;23.50;56.00;;;;;;5021537;28;20235;-86
2021/08/16 09:35:11;;;;;;;4.55;3.53;;;23.20;56.40;;;;;;5020419;28;20200;-87
2021/08/16 09:37:38;;;;;;;7.60;3.60;;;23.00;56.70;;;;;;5021656;28;20208;-86
2021/08/16 09:40:09;;;;;;;7.43;3.88;;;22.60;57.50;;;;;;5021750;28;20281;-85
2021/08/16 09:42:49;;;;;;;9.10;4.40;;;22.10;58.50;;;;;;5029826;28;20206;-86
2021/08/16 09:45:27;;;;;;;5.63;3.85;;;22.10;58.50;;;;;;5018030;28;20783;-86
2021/08/16 09:47:56;;;;;;;5.38;3.60;;;22.50;57.50;;;;;;5020957;28;20172;-86
2021/08/16 09:50:22;;;;;;;7.32;3.45;;;22.90;58.00;;;;;;5021463;28;20205;-86
2021/08/16 09:52:48;;;;;;;5.80;3.35;;;22.70;56.00;;;;;;5021299;28;20196;-85
2021/08/16 09:55:14;;;;;;;4.55;3.47;;;22.90;56.00;;;;;;5019232;28;20186;-87
2021/08/16 09:57:40;;;;;;;7.75;3.60;;;22.80;56.10;;;;;;5018987;28;20190;-86
2021/08/16 10:00:07;;;;;;;7.93;3.97;;;23.10;54.10;;;;;;5021909;28;20205;-87
2021/08/16 10:02:36;;;;;;;4.57;3.45;;;23.20;54.40;;;;;;5023585;28;20230;-86
2021/08/16 10:05:02;;;;;;;9.10;4.00;;;23.30;56.40;;;;;;5024753;28;20212;-87
2021/08/16 10:07:28;;;;;;;7.38;3.75;;;23.50;55.80;;;;;;5021014;28;20207;-88
2021/08/16 10:10:02;;;;;;;4.70;3.30;;;23.70;54.60;;;;;;5021460;28;20177;-86
2021/08/16 10:12:30;;;;;;;6.28;4.00;;;23.70;52.80;;;;;;5020359;28;20216;-86
2021/08/16 10:14:58;;;;;;;5.10;3.85;;;23.80;54.20;;;;;;5021708;28;20400;-85
2021/08/16 10:17:33;;;;;;;5.63;3.78;;;24.00;52.20;;;;;;5020772;28;20189;-86
2021/08/16 10:20:00;;;;;;;6.32;4.00;;;24.10;52.90;;;;;;5018966;28;20252;-88
2021/08/16 10:22:28;;;;;;;5.50;3.63;;;24.20;52.80;;;;;;5019754;28;20684;-88
2021/08/16 10:24:54;;;;;;;5.82;3.50;;;24.30;52.90;;;;;;5020784;28;20182;-86
2021/08/16 10:27:30;;;;;;;6.35;3.97;;;24.60;53.00;;;;;;5020470;28;20193;-86
2021/08/16 10:30:04;;;;;;;6.45;3.75;;;24.70;50.40;;;;;;5017977;28;20181;-86
2021/08/16 10:32:30;;;;;;;4.13;3.67;;;24.60;50.30;;;;;;5019520;28;20265;-87
2021/08/16 10:35:13;;;;;;;5.72;3.72;;;24.60;50.80;;;;;;5018107;28;20300;-88
2021/08/16 10:37:43;;;;;;;8.07;3.90;;;24.50;50.60;;;;;;5020554;28;20541;-87
2021/08/16 10:40:14;;;;;;;5.82;3.75;;;24.90;48.80;;;;;;5019994;28;20189;-86
2021/08/16 10:42:40;;;;;;;7.22;4.10;;;25.00;48.70;;;;;;5019941;28;20228;-87
2021/08/16 10:45:07;;;;;;;7.80;4.43;;;25.30;48.90;;;;;;5018927;28;20227;-86
2021/08/16 10:47:37;;;;;;;7.15;4.00;;;25.40;47.70;;;;;;5021107;28;20192;-87
2021/08/16 10:50:12;;;;;;;7.95;3.90;;;25.00;48.70;;;;;;5019690;28;20205;-86
2021/08/16 10:52:43;;;;;;;9.75;3.70;;;24.30;51.60;;;;;;5028061;28;20219;-87
2021/08/16 10:55:11;;;;;;;5.05;3.80;;;24.10;52.20;;;;;;5019808;28;20182;-88
2021/08/16 10:57:38;;;;;;;7.97;4.15;;;24.00;52.30;;;;;;5020176;28;20181;-89
2021/08/16 11:00:05;;;;;;;6.95;3.30;;;24.00;52.90;;;;;;5019473;28;20553;-87
2021/08/16 11:02:32;;;;;;;5.80;3.83;;;23.80;53.70;;;;;;5019671;28;20247;-86
2021/08/16 11:05:00;;;;;;;5.40;3.90;;;23.60;54.80;;;;;;5020393;28;20244;-87
2021/08/16 11:07:25;;;;;;;7.00;4.00;;;23.70;54.10;;;;;;5019458;28;20228;-86
2021/08/16 11:09:59;;;;;;;5.75;3.85;;;23.50;55.00;;;;;;5019404;28;20181;-88
2021/08/16 11:12:39;;;;;;;7.35;4.57;;;23.30;56.40;;;;;;5020739;28;20261;-86
2021/08/16 11:15:06;;;;;;;8.18;4.90;;;23.60;54.60;;;;;;5017806;28;20182;-87
2021/08/16 11:17:32;;;;;;;6.35;4.63;;;23.90;54.00;;;;;;5019814;28;20189;-87
2021/08/16 11:19:59;;;;;;;7.35;4.38;;;24.40;52.90;;;;;;5018872;28;20193;-89
2021/08/16 11:22:26;;;;;;;6.13;3.83;;;24.80;51.30;;;;;;5027044;28;20213;-93
2021/08/16 11:24:52;;;;;;;6.70;4.45;;;25.00;51.30;;;;;;5027178;28;20568;-88
2021/08/16 11:27:25;;;;;;;8.35;4.78;;;25.20;52.60;;;;;;5023874;28;20220;-87
2021/08/16 11:30:04;;;;;;;7.70;5.03;;;25.20;52.00;;;;;;5019550;28;20182;-87
2021/08/16 11:32:32;;;;;;;7.80;4.97;;;25.20;50.70;;;;;;5019176;28;20216;-89
2021/08/16 11:34:58;;;;;;;9.70;4.90;;;25.10;50.70;;;;;;5019435;28;20271;-86
2021/08/16 11:37:33;;;;;;;8.27;4.93;;;25.10;49.90;;;;;;5018861;28;20672;-87
2021/08/16 11:39:59;;;;;;;7.65;4.68;;;25.00;49.60;;;;;;5020561;28;20197;-86
2021/08/16 11:42:26;;;;;;;7.07;4.70;;;25.50;48.50;;;;;;5034986;28;20280;-86
2021/08/16 11:44:59;;;;;;;6.38;4.40;;;25.90;47.30;;;;;;5019724;28;20182;-86
2021/08/16 11:47:31;;;;;;;6.68;4.78;;;25.90;45.00;;;;;;5019029;28;20236;-87
2021/08/16 11:49:58;;;;;;;6.00;5.00;;;25.90;45.70;;;;;;5018812;28;20196;-87
2021/08/16 11:52:25;;;;;;;11.45;4.55;;;26.10;46.20;;;;;;5019859;28;20205;-89
2021/08/16 11:54:51;;;;;;;6.28;5.40;;;26.20;44.20;;;;;;5019989;28;20604;-86
2021/08/16 11:57:24;;;;;;;9.10;4.72;;;25.70;47.00;;;;;;5014418;28;20381;-87
2021/08/16 11:59:55;;;;;;;8.18;4.75;;;25.90;46.20;;;;;;5018903;28;20221;-86
2021/08/16 12:02:25;;;;;;;7.32;4.55;;;25.90;45.50;;;;;;5017834;28;20292;-87
2021/08/16 12:04:55;;;;;;;8.32;4.90;;;25.90;45.70;;;;;;5018747;28;20220;-87
2021/08/16 12:07:26;;;;;;;5.15;4.47;;;26.00;45.20;;;;;;5019176;28;20285;-87
2021/08/16 12:09:53;;;;;;;6.40;5.03;;;26.00;46.10;;;;;;5015572;28;20457;-88
2021/08/16 12:12:24;;;;;;;7.32;5.05;;;25.90;45.50;;;;;;5019386;28;20209;-89
2021/08/16 12:15:00;;;;;;;6.35;4.65;;;25.70;45.40;;;;;;5016269;28;20185;-87
2021/08/16 12:17:26;;;;;;;6.13;4.68;;;25.40;46.00;;;;;;5016730;28;20560;-88
2021/08/16 12:20:18;;;;;;;7.70;4.68;;;25.60;45.80;;;;;;5018064;28;20209;-87
2021/08/16 12:22:57;;;;;;;9.80;5.22;;;25.30;47.70;;;;;;5017984;28;20228;-86
2021/08/16 12:25:24;;;;;;;6.95;4.78;;;25.40;47.10;;;;;;5018700;28;20644;-89
2021/08/16 12:27:57;;;;;;;6.78;4.55;;;25.60;46.80;;;;;;5022104;28;20193;-87
2021/08/16 12:30:28;;;;;;;7.25;4.90;;;25.50;45.50;;;;;;5021893;28;20190;-88
2021/08/16 12:33:04;;;;;;;5.15;4.25;;;26.00;46.00;;;;;;5022553;28;20212;-86
2021/08/16 12:35:30;;;;;;;6.03;4.43;;;26.30;46.50;;;;;;5023048;28;20204;-86
2021/08/16 12:38:00;;;;;;;4.68;4.15;;;26.50;44.90;;;;;;5022562;28;20571;-86
2021/08/16 12:40:26;;;;;;;5.90;4.68;;;26.70;44.30;;;;;;5021949;28;20236;-87